Time;durP1;ratioP1;P1;durP2;ratioP2;P2;SDS_P1;SDS_P2;PMS_P1;PMS_P2;Temp;Humidity;BMP_temperature;BMP_pressure;BME280_temperature;BME280_humidity;BME280_pressure;Samples;Min_cycle;Max_cycle;Signal;HPM_P1;HPM_P2
2022/11/03 00:01:36;;;;;;;9.60;1.90;;;12.10;99.40;;;;;;5140020;27;20114;-77
2022/11/03 00:04:02;;;;;;;14.07;2.30;;;12.10;99.50;;;;;;5139996;27;20043;-77
2022/11/03 00:06:28;;;;;;;15.90;2.38;;;12.10;99.40;;;;;;5139910;27;20088;-77
2022/11/03 00:08:57;;;;;;;21.73;2.55;;;12.10;99.40;;;;;;5139016;27;20327;-77
2022/11/03 00:11:23;;;;;;;15.23;2.03;;;12.00;99.50;;;;;;5139632;27;20036;-78
2022/11/03 00:13:48;;;;;;;14.60;2.53;;;12.00;99.50;;;;;;5139351;27;20042;-78
2022/11/03 00:16:14;;;;;;;12.38;2.88;;;11.90;99.70;;;;;;5139829;27;20080;-78
2022/11/03 00:18:40;;;;;;;15.65;1.95;;;11.90;99.60;;;;;;5138801;27;20408;-78
2022/11/03 00:21:08;;;;;;;9.27;2.03;;;11.90;99.70;;;;;;5138197;27;20126;-78
2022/11/03 00:23:36;;;;;;;15.73;3.35;;;11.90;99.80;;;;;;5139217;27;20127;-77
2022/11/03 00:26:06;;;;;;;15.50;2.17;;;11.90;99.70;;;;;;5139705;27;20047;-78
2022/11/03 00:28:32;;;;;;;14.55;2.17;;;11.90;99.70;;;;;;5139422;27;20108;-77
2022/11/03 00:31:05;;;;;;;17.27;2.58;;;11.90;99.80;;;;;;5139484;27;20417;-78
2022/11/03 00:33:32;;;;;;;12.27;1.98;;;12.00;99.80;;;;;;5138224;27;20077;-78
2022/11/03 00:36:01;;;;;;;16.38;2.25;;;12.10;99.80;;;;;;5139391;27;20039;-78
2022/11/03 00:38:28;;;;;;;12.73;2.28;;;12.10;99.60;;;;;;5139237;27;20380;-77
2022/11/03 00:40:59;;;;;;;13.00;2.17;;;12.10;99.70;;;;;;5139345;27;20370;-77
2022/11/03 00:43:25;;;;;;;15.40;1.73;;;12.10;99.70;;;;;;5139055;27;20415;-77
2022/11/03 00:45:51;;;;;;;15.65;2.20;;;12.00;99.70;;;;;;5137788;27;20382;-78
2022/11/03 00:48:30;;;;;;;15.18;2.20;;;12.00;99.70;;;;;;5138361;27;20031;-77
2022/11/03 00:51:11;;;;;;;16.00;2.00;;;12.00;99.60;;;;;;5137681;27;20058;-77
2022/11/03 00:53:39;;;;;;;12.00;2.22;;;12.10;99.60;;;;;;5139099;27;20031;-77
2022/11/03 00:56:08;;;;;;;10.82;2.00;;;12.00;99.60;;;;;;5139126;27;20049;-78
2022/11/03 00:58:33;;;;;;;15.98;2.28;;;12.00;99.70;;;;;;5138753;27;20447;-77
2022/11/03 01:01:00;;;;;;;15.55;2.45;;;11.90;99.50;;;;;;5139059;27;20043;-77
2022/11/03 01:03:26;;;;;;;12.02;2.05;;;11.90;99.60;;;;;;5138735;27;20043;-77
2022/11/03 01:08:36;;;;;;;16.17;2.70;;;11.80;99.60;;;;;;5138574;27;20050;-78
2022/11/03 01:13:55;;;;;;;11.80;2.05;;;11.70;99.70;;;;;;5138397;27;20039;-78
2022/11/03 01:16:21;;;;;;;7.82;1.90;;;11.80;99.80;;;;;;5138424;27;20122;-78
2022/11/03 01:18:47;;;;;;;16.98;2.13;;;11.90;99.80;;;;;;5137784;27;20043;-78
2022/11/03 01:21:13;;;;;;;11.60;2.00;;;11.90;99.70;;;;;;5138305;27;20096;-79
2022/11/03 01:23:38;;;;;;;24.70;3.28;;;11.80;99.80;;;;;;5138482;27;20078;-78
2022/11/03 01:26:09;;;;;;;11.15;2.15;;;11.80;99.70;;;;;;5138531;27;20152;-77
2022/11/03 01:28:36;;;;;;;9.88;1.95;;;11.70;99.70;;;;;;5138235;27;20408;-77
2022/11/03 01:31:07;;;;;;;12.25;1.85;;;11.70;99.80;;;;;;5137535;27;20053;-77
2022/11/03 01:33:33;;;;;;;10.73;1.95;;;11.70;99.80;;;;;;5138003;27;20136;-78
2022/11/03 01:35:58;;;;;;;14.77;2.90;;;11.70;99.80;;;;;;5138057;27;20057;-78
2022/11/03 01:38:24;;;;;;;11.88;2.30;;;11.70;99.80;;;;;;5138087;27;20035;-77
2022/11/03 01:40:50;;;;;;;16.00;2.25;;;11.80;99.90;;;;;;5138170;27;20091;-78
2022/11/03 01:43:22;;;;;;;9.93;1.92;;;11.80;99.90;;;;;;5137894;27;20098;-87
2022/11/03 01:46:16;;;;;;;16.20;2.42;;;11.80;99.80;;;;;;5136948;27;20452;-78
2022/11/03 01:48:48;;;;;;;15.15;1.90;;;11.80;99.80;;;;;;5137680;27;20043;-78
2022/11/03 01:51:16;;;;;;;16.10;2.72;;;11.80;99.90;;;;;;5137708;27;20450;-77
2022/11/03 01:53:46;;;;;;;13.40;2.00;;;11.70;99.80;;;;;;5138143;27;20039;-77
2022/11/03 01:56:14;;;;;;;13.32;2.10;;;11.70;99.90;;;;;;5137746;27;20035;-78
2022/11/03 01:58:43;;;;;;;12.10;2.03;;;11.70;99.90;;;;;;5137964;27;20106;-78
2022/11/03 02:01:10;;;;;;;18.73;2.20;;;11.80;99.90;;;;;;5136803;27;20047;-78
2022/11/03 02:03:42;;;;;;;7.38;1.75;;;11.70;99.90;;;;;;5137813;27;20031;-78
2022/11/03 02:06:08;;;;;;;11.20;1.80;;;11.60;99.90;;;;;;5137763;27;20061;-78
2022/11/03 02:08:48;;;;;;;20.55;2.78;;;11.70;99.90;;;;;;5137572;27;20049;-78
2022/11/03 02:13:58;;;;;;;17.60;2.38;;;11.60;99.90;;;;;;5137481;27;20389;-78
2022/11/03 02:16:25;;;;;;;12.75;2.30;;;11.60;99.90;;;;;;5137658;27;20074;-78
2022/11/03 02:18:52;;;;;;;14.90;2.22;;;11.50;99.90;;;;;;5137540;27;20420;-78
2022/11/03 02:21:34;;;;;;;16.52;2.70;;;11.60;99.90;;;;;;5137361;27;20374;-78
2022/11/03 02:24:05;;;;;;;22.30;2.55;;;11.60;99.90;;;;;;5137712;27;20048;-78
2022/11/03 02:26:31;;;;;;;9.77;2.05;;;11.60;99.90;;;;;;5137651;28;20043;-78
2022/11/03 02:28:57;;;;;;;17.05;2.50;;;11.60;99.90;;;;;;5137471;27;20091;-79
2022/11/03 02:31:40;;;;;;;14.52;2.10;;;11.60;99.90;;;;;;5137665;28;20039;-78
2022/11/03 02:34:15;;;;;;;14.48;2.20;;;11.70;99.90;;;;;;5137382;27;20031;-78
2022/11/03 02:36:58;;;;;;;13.07;2.65;;;11.60;99.90;;;;;;5137624;28;20039;-78
2022/11/03 02:39:35;;;;;;;14.07;2.20;;;11.70;99.90;;;;;;5137580;27;20039;-79
2022/11/03 02:42:03;;;;;;;13.80;2.30;;;11.70;99.90;;;;;;5137573;27;20039;-78
2022/11/03 02:44:32;;;;;;;13.63;2.17;;;11.70;99.90;;;;;;5136874;27;20035;-78
2022/11/03 02:47:01;;;;;;;19.30;2.55;;;11.70;99.90;;;;;;5123020;27;20122;-78
2022/11/03 02:49:27;;;;;;;14.68;2.72;;;11.80;99.90;;;;;;5141299;27;20096;-77
2022/11/03 02:52:04;;;;;;;16.58;2.88;;;11.70;99.90;;;;;;5141196;27;20051;-78
2022/11/03 02:54:40;;;;;;;11.40;2.22;;;11.70;99.90;;;;;;5141407;27;20092;-78
2022/11/03 02:57:17;;;;;;;10.75;2.25;;;11.70;99.90;;;;;;5141238;27;20035;-78
2022/11/03 02:59:52;;;;;;;11.35;1.90;;;11.80;99.90;;;;;;5141440;27;20038;-78
2022/11/03 03:02:24;;;;;;;18.83;2.40;;;11.80;99.90;;;;;;5140999;27;20412;-77
2022/11/03 03:04:54;;;;;;;13.18;2.00;;;11.80;99.90;;;;;;5141125;27;20043;-78
2022/11/03 03:07:28;;;;;;;18.10;2.80;;;11.80;99.90;;;;;;5141202;27;20054;-78
2022/11/03 03:10:26;;;;;;;12.85;1.85;;;11.80;99.90;;;;;;5139833;27;20118;-78
2022/11/03 03:12:56;;;;;;;15.18;2.35;;;11.80;99.90;;;;;;5137963;27;20092;-77
2022/11/03 03:15:44;;;;;;;11.00;2.08;;;11.80;99.90;;;;;;5140699;27;20031;-78
2022/11/03 03:18:29;;;;;;;15.73;1.92;;;11.80;99.90;;;;;;5140889;27;20050;-78
2022/11/03 03:21:07;;;;;;;11.47;2.57;;;11.80;99.90;;;;;;5140825;27;20492;-77
2022/11/03 03:23:40;;;;;;;14.88;2.80;;;11.80;99.90;;;;;;5140767;27;20436;-77
2022/11/03 03:26:23;;;;;;;18.08;2.60;;;11.90;99.90;;;;;;5140877;27;20122;-78
2022/11/03 03:28:57;;;;;;;19.15;3.25;;;11.90;99.90;;;;;;5140760;27;20039;-77
2022/11/03 03:31:26;;;;;;;12.27;2.17;;;12.00;99.90;;;;;;5140916;27;20118;-78
2022/11/03 03:33:53;;;;;;;19.58;2.63;;;11.90;99.90;;;;;;5140864;27;20050;-78
2022/11/03 03:36:20;;;;;;;16.65;2.40;;;12.00;99.90;;;;;;5140553;27;20046;-78
2022/11/03 03:38:54;;;;;;;9.13;1.83;;;12.10;99.90;;;;;;5140671;27;20096;-77
2022/11/03 03:41:23;;;;;;;12.10;2.45;;;12.10;99.90;;;;;;5140357;27;20042;-77
2022/11/03 03:43:51;;;;;;;13.65;2.22;;;12.10;99.90;;;;;;5139875;27;20427;-78
2022/11/03 03:46:19;;;;;;;10.43;1.92;;;12.10;99.90;;;;;;5139352;27;20078;-77
2022/11/03 03:48:45;;;;;;;12.30;2.38;;;12.10;99.90;;;;;;5140266;27;20031;-77
2022/11/03 03:51:12;;;;;;;16.50;2.65;;;12.10;99.90;;;;;;5139799;27;20393;-77
2022/11/03 03:53:38;;;;;;;15.43;2.38;;;12.20;99.90;;;;;;5140339;27;20106;-77
2022/11/03 03:56:04;;;;;;;14.73;3.00;;;12.20;99.90;;;;;;5139276;27;20048;-78
2022/11/03 03:58:30;;;;;;;21.65;2.65;;;12.20;99.90;;;;;;5139298;27;20420;-78
2022/11/03 04:00:56;;;;;;;14.20;2.40;;;12.20;99.90;;;;;;5139687;27;20042;-77
2022/11/03 04:03:24;;;;;;;16.92;2.92;;;12.20;99.90;;;;;;5139006;27;20054;-78
2022/11/03 04:05:52;;;;;;;14.57;2.63;;;12.20;99.90;;;;;;5139523;27;20045;-77
2022/11/03 04:08:18;;;;;;;21.17;3.28;;;12.20;99.90;;;;;;5139593;27;20032;-78
2022/11/03 04:24:44;;;;;;;8.88;3.05;;;12.00;99.90;;;;;;5105042;27;20043;-77
2022/11/03 04:27:40;;;;;;;17.52;3.50;;;11.90;99.90;;;;;;5138396;27;20705;-77
2022/11/03 04:30:08;;;;;;;13.93;2.50;;;11.80;99.90;;;;;;5139307;27;20035;-78
2022/11/03 04:32:35;;;;;;;11.60;2.00;;;11.90;99.90;;;;;;5139472;27;20051;-78
2022/11/03 04:35:06;;;;;;;14.90;2.22;;;11.90;99.90;;;;;;5139311;27;20039;-78
2022/11/03 04:37:31;;;;;;;13.82;2.20;;;11.90;99.90;;;;;;5139585;27;20325;-78
2022/11/03 04:40:00;;;;;;;9.50;2.03;;;12.00;99.90;;;;;;5139371;27;20039;-78
2022/11/03 04:42:29;;;;;;;14.30;2.40;;;11.80;99.90;;;;;;5139192;27;20503;-78
2022/11/03 04:44:58;;;;;;;14.93;2.40;;;11.90;99.90;;;;;;5138706;27;20039;-77
2022/11/03 04:47:25;;;;;;;12.73;2.45;;;11.80;99.90;;;;;;5138998;27;20070;-78
2022/11/03 04:49:50;;;;;;;18.08;2.17;;;11.80;99.90;;;;;;5139022;27;20032;-78
2022/11/03 04:52:20;;;;;;;13.18;2.38;;;11.80;99.90;;;;;;5138759;27;20062;-78
2022/11/03 04:54:48;;;;;;;11.20;2.50;;;11.80;99.90;;;;;;5139174;27;20034;-77
2022/11/03 04:57:15;;;;;;;11.90;1.90;;;11.90;99.90;;;;;;5138112;27;20131;-78
2022/11/03 04:59:44;;;;;;;15.50;2.20;;;11.90;99.90;;;;;;5138884;27;20058;-78
2022/11/03 05:02:13;;;;;;;10.40;2.08;;;11.90;99.90;;;;;;5138843;27;20049;-78
2022/11/03 05:04:40;;;;;;;12.60;2.17;;;11.90;99.90;;;;;;5137415;27;20424;-78
2022/11/03 05:07:34;;;;;;;12.85;2.30;;;11.90;99.90;;;;;;5137653;27;20049;-80
2022/11/03 05:10:05;;;;;;;14.60;2.55;;;11.90;99.90;;;;;;5137119;27;20100;-78
2022/11/03 05:12:31;;;;;;;18.27;2.90;;;11.80;99.90;;;;;;5138058;27;20316;-78
2022/11/03 05:14:56;;;;;;;14.57;2.08;;;11.90;99.90;;;;;;5136896;27;20046;-78
2022/11/03 05:17:27;;;;;;;10.48;2.28;;;11.90;99.90;;;;;;5138704;27;20047;-78
2022/11/03 05:20:03;;;;;;;9.70;2.13;;;11.90;99.90;;;;;;5138465;27;20047;-78
2022/11/03 05:22:34;;;;;;;15.60;2.30;;;11.90;99.90;;;;;;5138571;27;20039;-78
2022/11/03 05:25:23;;;;;;;16.98;2.47;;;11.80;99.90;;;;;;5138325;27;20036;-78
2022/11/03 05:27:48;;;;;;;18.55;2.55;;;11.90;99.90;;;;;;5138185;27;20035;-78
2022/11/03 05:30:14;;;;;;;10.38;2.65;;;11.90;99.90;;;;;;5138310;27;20336;-78
2022/11/03 05:32:41;;;;;;;15.27;3.10;;;11.80;99.90;;;;;;5138514;27;20035;-78
2022/11/03 05:35:22;;;;;;;18.88;2.90;;;11.80;99.90;;;;;;5138300;27;20043;-79
2022/11/03 05:37:49;;;;;;;12.48;2.60;;;11.80;99.90;;;;;;5138033;27;20042;-78
2022/11/03 05:40:24;;;;;;;16.42;2.35;;;11.80;99.90;;;;;;5138110;27;20051;-78
2022/11/03 05:43:01;;;;;;;13.10;2.35;;;11.90;99.90;;;;;;5137971;27;20047;-78
2022/11/03 05:45:34;;;;;;;10.23;2.25;;;11.90;99.90;;;;;;5137777;27;20075;-78
2022/11/03 05:48:04;;;;;;;13.60;2.50;;;12.00;99.90;;;;;;5138083;27;20070;-78
2022/11/03 05:50:33;;;;;;;13.85;2.00;;;11.90;99.90;;;;;;5137496;27;20100;-78
2022/11/03 05:53:11;;;;;;;11.57;2.10;;;11.80;99.90;;;;;;5119752;27;20075;-78
2022/11/03 05:55:37;;;;;;;12.93;2.33;;;11.80;99.90;;;;;;5136858;27;20046;-77
2022/11/03 05:58:36;;;;;;;13.95;2.20;;;11.80;99.90;;;;;;5137651;27;20081;-78
2022/11/03 06:01:12;;;;;;;13.02;2.40;;;11.70;99.90;;;;;;5137944;27;20317;-78
2022/11/03 06:03:38;;;;;;;13.65;1.85;;;11.80;99.90;;;;;;5137872;27;20039;-78
2022/11/03 06:06:30;;;;;;;17.67;2.35;;;11.70;99.90;;;;;;5137494;27;20123;-78
2022/11/03 06:08:58;;;;;;;12.60;2.08;;;11.70;99.90;;;;;;5137629;27;20039;-79
2022/11/03 06:11:44;;;;;;;12.90;2.17;;;11.70;99.90;;;;;;5137371;27;20432;-78
2022/11/03 06:14:19;;;;;;;13.65;2.25;;;11.70;99.90;;;;;;5137134;27;20505;-78
2022/11/03 06:16:56;;;;;;;13.02;2.72;;;11.70;99.90;;;;;;5137871;27;20074;-78
2022/11/03 06:19:41;;;;;;;13.60;3.05;;;11.70;99.90;;;;;;5136955;27;20122;-78
2022/11/03 06:22:22;;;;;;;15.18;2.22;;;11.80;99.90;;;;;;5137612;27;20042;-78
2022/11/03 06:24:48;;;;;;;16.13;2.78;;;11.70;99.90;;;;;;5137827;27;20095;-78
2022/11/03 06:27:17;;;;;;;11.98;2.20;;;11.80;99.90;;;;;;5137547;28;20114;-78
2022/11/03 06:29:51;;;;;;;14.35;2.28;;;11.70;99.90;;;;;;5137638;27;20039;-78
2022/11/03 06:32:17;;;;;;;19.30;2.90;;;11.70;99.90;;;;;;5137305;27;20500;-78
2022/11/03 06:34:53;;;;;;;13.93;2.50;;;11.70;99.90;;;;;;5137680;27;20050;-78
2022/11/03 06:37:29;;;;;;;10.55;2.38;;;11.70;99.90;;;;;;5137540;27;20043;-78
2022/11/03 06:40:18;;;;;;;10.95;2.42;;;11.70;99.90;;;;;;5137327;27;20035;-77
2022/11/03 06:42:44;;;;;;;12.45;2.25;;;11.70;99.90;;;;;;5128988;27;20108;-77
2022/11/03 06:45:19;;;;;;;16.08;2.42;;;11.70;99.90;;;;;;5136951;27;20123;-78
2022/11/03 06:47:45;;;;;;;15.15;2.55;;;11.70;99.90;;;;;;5137484;27;20084;-78
2022/11/03 06:50:23;;;;;;;9.07;2.13;;;11.70;99.90;;;;;;5137201;27;20032;-78
2022/11/03 06:52:49;;;;;;;15.05;2.50;;;11.70;99.90;;;;;;5137329;27;20039;-79
2022/11/03 06:55:27;;;;;;;13.23;2.55;;;11.80;99.90;;;;;;5137231;27;20340;-78
2022/11/03 06:58:00;;;;;;;14.57;2.55;;;11.80;99.90;;;;;;5137334;27;20045;-78
2022/11/03 07:00:28;;;;;;;9.55;2.22;;;11.80;99.90;;;;;;5137409;28;20046;-78
2022/11/03 07:03:16;;;;;;;13.32;2.75;;;11.80;99.90;;;;;;5137097;27;20089;-78
2022/11/03 07:05:44;;;;;;;14.73;2.88;;;11.80;99.90;;;;;;5137137;27;20078;-78
2022/11/03 07:08:34;;;;;;;14.45;2.67;;;11.80;99.90;;;;;;5137249;27;20043;-78
2022/11/03 07:11:11;;;;;;;12.93;2.72;;;11.90;99.90;;;;;;5137054;27;20031;-78
2022/11/03 07:13:36;;;;;;;13.07;2.15;;;12.00;99.90;;;;;;5137079;27;20046;-78
2022/11/03 07:16:02;;;;;;;12.77;2.30;;;12.00;99.90;;;;;;5136356;27;20039;-78
2022/11/03 07:18:33;;;;;;;15.27;2.90;;;12.10;99.90;;;;;;5136933;27;20045;-79
2022/11/03 07:21:04;;;;;;;11.68;2.42;;;11.80;99.90;;;;;;5136861;27;20039;-78
2022/11/03 07:23:30;;;;;;;11.95;2.63;;;11.90;99.90;;;;;;5136983;27;20122;-78
2022/11/03 07:25:59;;;;;;;19.25;2.80;;;12.00;99.90;;;;;;5135863;27;20118;-78
2022/11/03 07:28:37;;;;;;;16.02;2.80;;;12.00;99.90;;;;;;5136778;27;20049;-78
2022/11/03 07:31:15;;;;;;;16.48;2.25;;;12.10;99.90;;;;;;5138044;27;20035;-78
2022/11/03 07:33:40;;;;;;;8.38;2.30;;;12.00;99.90;;;;;;5140642;27;20117;-78
2022/11/03 07:36:14;;;;;;;9.95;2.25;;;12.00;99.90;;;;;;5139603;27;20054;-79
2022/11/03 07:38:42;;;;;;;11.07;2.70;;;12.10;99.90;;;;;;5139526;27;20039;-78
2022/11/03 07:41:14;;;;;;;13.90;2.45;;;12.20;99.90;;;;;;5139210;27;20039;-78
2022/11/03 07:43:40;;;;;;;14.20;2.80;;;12.20;99.90;;;;;;5140381;27;20039;-85
2022/11/03 07:46:15;;;;;;;10.77;2.60;;;12.20;99.90;;;;;;5140170;27;20046;-78
2022/11/03 07:49:02;;;;;;;12.95;2.78;;;12.20;99.90;;;;;;5140574;27;20035;-78
2022/11/03 07:51:30;;;;;;;14.98;3.20;;;12.20;99.90;;;;;;5140063;27;20106;-78
2022/11/03 07:54:17;;;;;;;12.35;2.08;;;12.20;99.90;;;;;;5139309;27;20396;-78
2022/11/03 07:56:57;;;;;;;14.27;2.45;;;12.40;99.90;;;;;;5140486;27;20043;-77
2022/11/03 07:59:34;;;;;;;12.27;2.65;;;12.40;99.90;;;;;;5140050;27;20043;-77
2022/11/03 08:02:01;;;;;;;12.82;2.35;;;12.30;99.90;;;;;;5140180;27;20039;-78
2022/11/03 08:04:32;;;;;;;10.95;2.38;;;12.40;99.90;;;;;;5139475;27;20039;-78
2022/11/03 08:06:57;;;;;;;16.45;2.70;;;12.50;99.90;;;;;;5135140;27;20039;-78
2022/11/03 08:09:23;;;;;;;12.13;2.63;;;12.50;99.90;;;;;;5137744;27;20421;-78
2022/11/03 08:11:49;;;;;;;18.75;2.97;;;12.70;99.90;;;;;;5139143;27;20062;-78
2022/11/03 08:14:15;;;;;;;12.38;2.60;;;12.70;99.90;;;;;;5139310;27;20039;-80
2022/11/03 08:16:41;;;;;;;10.98;2.53;;;12.70;99.90;;;;;;5138909;27;20045;-78
2022/11/03 08:19:07;;;;;;;10.38;2.45;;;12.80;99.90;;;;;;5138175;27;20054;-77
2022/11/03 08:21:32;;;;;;;11.18;2.33;;;12.80;99.90;;;;;;5135807;27;20324;-77
2022/11/03 08:23:58;;;;;;;14.35;2.83;;;12.80;99.90;;;;;;5137001;27;20475;-71
2022/11/03 08:26:24;;;;;;;10.70;2.50;;;12.90;99.90;;;;;;5139534;27;20421;-72
2022/11/03 08:28:51;;;;;;;10.65;2.33;;;12.90;99.90;;;;;;5138328;27;20062;-74
2022/11/03 08:31:17;;;;;;;10.85;3.03;;;13.00;99.90;;;;;;5139244;27;20039;-71
2022/11/03 08:33:42;;;;;;;14.60;2.95;;;13.00;99.90;;;;;;5139461;27;20058;-72
2022/11/03 08:36:08;;;;;;;13.43;2.47;;;13.10;99.90;;;;;;5139575;27;20122;-71
2022/11/03 08:38:34;;;;;;;9.32;2.40;;;13.10;99.90;;;;;;5139256;27;20043;-71
2022/11/03 08:41:01;;;;;;;14.13;2.92;;;13.10;99.90;;;;;;5139105;27;20084;-71
2022/11/03 08:43:26;;;;;;;12.82;2.67;;;13.20;99.90;;;;;;5154332;27;20039;-71
2022/11/03 08:45:52;;;;;;;11.50;2.60;;;13.20;99.90;;;;;;5138660;27;20184;-75
2022/11/03 08:48:26;;;;;;;18.35;2.92;;;13.30;99.90;;;;;;5139402;27;20031;-74
2022/11/03 08:50:53;;;;;;;12.23;2.50;;;13.30;99.90;;;;;;5138870;27;20432;-72
2022/11/03 08:53:19;;;;;;;14.50;2.90;;;13.40;99.90;;;;;;5138147;27;20041;-73
2022/11/03 08:55:45;;;;;;;16.38;2.70;;;13.40;99.90;;;;;;5137139;27;20039;-73
2022/11/03 08:58:11;;;;;;;18.58;2.75;;;13.50;99.90;;;;;;5138616;27;20042;-73
2022/11/03 09:00:36;;;;;;;10.10;2.85;;;13.40;99.90;;;;;;5137292;27;20042;-72
2022/11/03 09:03:02;;;;;;;11.68;2.65;;;13.50;99.90;;;;;;5138856;27;20042;-72
2022/11/03 09:05:28;;;;;;;13.98;2.67;;;13.50;99.90;;;;;;5138610;27;20039;-72
2022/11/03 09:07:54;;;;;;;14.35;3.15;;;13.40;99.90;;;;;;5138732;27;20132;-72
2022/11/03 09:10:19;;;;;;;11.07;2.85;;;13.50;99.90;;;;;;5137691;27;20420;-73
2022/11/03 09:12:45;;;;;;;12.25;2.75;;;13.60;99.90;;;;;;5137513;27;20420;-72
2022/11/03 09:15:11;;;;;;;18.10;2.55;;;13.50;99.90;;;;;;5138054;27;20039;-72
2022/11/03 09:17:36;;;;;;;13.90;2.45;;;13.50;99.90;;;;;;5138311;27;20043;-72
2022/11/03 09:20:04;;;;;;;12.15;2.88;;;13.50;99.90;;;;;;5137220;27;20126;-72
2022/11/03 09:22:30;;;;;;;17.15;2.60;;;13.60;99.90;;;;;;5138476;27;20039;-72
2022/11/03 09:24:55;;;;;;;13.95;2.92;;;13.80;99.90;;;;;;5120343;27;20039;-72
2022/11/03 09:27:21;;;;;;;14.52;2.80;;;13.80;99.90;;;;;;5138042;27;20066;-71
2022/11/03 09:29:47;;;;;;;13.77;3.03;;;13.70;99.90;;;;;;5138255;27;20183;-71
2022/11/03 09:32:13;;;;;;;10.80;2.53;;;13.70;99.90;;;;;;5137435;27;20046;-71
2022/11/03 09:34:38;;;;;;;14.65;2.78;;;13.80;99.90;;;;;;5138189;27;20414;-72
2022/11/03 09:37:04;;;;;;;12.45;2.80;;;13.80;99.90;;;;;;5138378;27;20366;-71
2022/11/03 09:39:30;;;;;;;16.33;2.88;;;13.70;99.90;;;;;;5162761;27;20036;-71
2022/11/03 09:41:56;;;;;;;13.80;2.60;;;13.70;99.90;;;;;;5117606;28;20046;-71
2022/11/03 09:44:23;;;;;;;15.95;3.30;;;13.80;99.90;;;;;;5115923;28;20055;-71
2022/11/03 09:46:50;;;;;;;10.60;2.63;;;14.00;99.90;;;;;;5133802;27;20047;-75
2022/11/03 09:49:18;;;;;;;14.63;3.08;;;14.10;99.90;;;;;;5116536;28;20043;-72
2022/11/03 09:51:44;;;;;;;18.75;2.80;;;14.00;99.90;;;;;;5117118;28;20428;-72
2022/11/03 09:54:14;;;;;;;13.30;2.70;;;14.00;99.90;;;;;;5134748;27;20039;-73
2022/11/03 09:56:40;;;;;;;15.10;2.72;;;14.10;99.90;;;;;;5136875;27;20039;-71
2022/11/03 09:59:21;;;;;;;11.63;2.85;;;14.10;99.90;;;;;;5137971;27;20039;-72
2022/11/03 10:01:49;;;;;;;11.27;2.33;;;14.20;99.90;;;;;;5137763;27;20035;-75
2022/11/03 10:04:18;;;;;;;10.02;2.17;;;14.30;99.90;;;;;;5119354;27;20047;-78
2022/11/03 10:06:44;;;;;;;13.77;2.92;;;14.30;99.90;;;;;;5119773;27;20051;-78
2022/11/03 10:09:16;;;;;;;14.10;2.58;;;14.40;99.90;;;;;;5102022;27;20111;-80
2022/11/03 10:11:44;;;;;;;13.07;3.00;;;14.40;99.90;;;;;;5119440;27;20031;-81
2022/11/03 10:14:13;;;;;;;13.02;2.83;;;14.50;99.90;;;;;;5136826;27;20031;-78
2022/11/03 10:16:41;;;;;;;14.15;2.33;;;14.60;99.90;;;;;;5136479;27;20046;-81
2022/11/03 10:19:13;;;;;;;13.05;2.53;;;14.60;99.90;;;;;;5119090;28;20046;-79
2022/11/03 10:21:41;;;;;;;12.80;2.53;;;14.70;99.90;;;;;;5136255;27;20111;-75
2022/11/03 10:24:11;;;;;;;12.73;2.90;;;14.80;99.90;;;;;;5137567;27;20035;-75
2022/11/03 10:26:53;;;;;;;9.35;2.65;;;14.70;99.90;;;;;;5137461;27;20043;-81
2022/11/03 10:29:25;;;;;;;15.95;2.30;;;14.60;99.90;;;;;;5137314;27;20046;-80
2022/11/03 10:31:53;;;;;;;14.13;2.65;;;14.80;99.90;;;;;;5136353;27;20040;-85
2022/11/03 10:34:39;;;;;;;15.38;2.83;;;14.80;99.90;;;;;;5136405;28;20066;-72
2022/11/03 10:37:19;;;;;;;12.30;2.50;;;14.70;99.90;;;;;;5136605;27;20335;-72
2022/11/03 10:39:46;;;;;;;14.88;2.65;;;14.90;99.90;;;;;;5125126;28;20042;-73
2022/11/03 10:42:25;;;;;;;12.98;2.80;;;15.00;99.90;;;;;;5120545;28;20042;-72
2022/11/03 10:45:11;;;;;;;9.90;2.78;;;15.10;99.90;;;;;;5136417;28;20122;-74
2022/11/03 10:47:40;;;;;;;14.85;2.67;;;15.30;99.90;;;;;;5136565;28;20036;-73
2022/11/03 10:50:23;;;;;;;11.35;2.35;;;15.70;99.90;;;;;;5127170;27;20111;-74
2022/11/03 10:52:50;;;;;;;14.55;3.47;;;16.00;99.90;;;;;;5133431;27;20054;-75
2022/11/03 10:55:17;;;;;;;12.88;2.95;;;16.20;99.90;;;;;;5130650;28;20368;-73
2022/11/03 10:57:43;;;;;;;9.98;2.33;;;16.40;99.60;;;;;;5133605;27;20039;-76
2022/11/03 11:00:16;;;;;;;8.73;2.10;;;16.50;99.40;;;;;;5135769;27;20080;-74
2022/11/03 11:02:45;;;;;;;10.18;2.28;;;16.50;99.10;;;;;;5118784;28;20046;-74
2022/11/03 11:05:22;;;;;;;11.65;2.20;;;16.50;99.60;;;;;;5137297;27;20054;-72
2022/11/03 11:07:51;;;;;;;10.77;2.28;;;16.50;99.30;;;;;;5141092;27;20039;-79
2022/11/03 11:10:21;;;;;;;10.13;2.40;;;16.40;99.20;;;;;;5141009;27;20446;-75
2022/11/03 11:13:24;;;;;;;11.75;2.42;;;16.20;99.50;;;;;;5140910;27;20475;-74
2022/11/03 11:15:51;;;;;;;9.55;2.20;;;16.30;99.50;;;;;;5140547;27;20118;-71
2022/11/03 11:18:29;;;;;;;12.43;1.95;;;16.20;98.90;;;;;;5141050;27;20047;-74
2022/11/03 11:20:59;;;;;;;11.20;2.75;;;16.20;99.20;;;;;;5140759;27;20051;-74
2022/11/03 11:23:28;;;;;;;9.32;2.42;;;16.20;98.90;;;;;;5140923;27;20050;-73
2022/11/03 11:26:16;;;;;;;8.77;2.40;;;16.30;99.30;;;;;;5140626;27;20087;-76
2022/11/03 11:28:44;;;;;;;14.73;2.35;;;16.40;98.90;;;;;;5139755;27;20031;-73
2022/11/03 11:31:25;;;;;;;13.02;2.22;;;16.70;98.90;;;;;;5139834;27;20031;-73
2022/11/03 11:34:16;;;;;;;9.90;2.20;;;16.70;98.50;;;;;;5140685;27;20035;-73
2022/11/03 11:36:44;;;;;;;10.38;2.17;;;16.60;98.60;;;;;;5140399;27;20039;-73
2022/11/03 11:39:32;;;;;;;8.48;1.83;;;16.50;98.60;;;;;;5140381;27;20320;-73
2022/11/03 11:42:18;;;;;;;11.13;2.60;;;16.50;98.80;;;;;;5140347;27;20042;-74
2022/11/03 11:44:56;;;;;;;17.15;2.55;;;16.30;98.50;;;;;;5140053;27;20172;-74
2022/11/03 11:47:47;;;;;;;13.93;2.13;;;16.30;98.70;;;;;;5140317;27;20031;-73
2022/11/03 11:50:13;;;;;;;7.03;1.90;;;16.20;98.60;;;;;;5140363;27;20027;-74
2022/11/03 11:52:57;;;;;;;8.05;1.90;;;16.20;98.60;;;;;;5139133;27;20385;-75
2022/11/03 11:55:45;;;;;;;11.25;1.88;;;16.20;98.50;;;;;;5140229;27;20050;-74
2022/11/03 11:58:19;;;;;;;7.82;1.80;;;16.20;98.40;;;;;;5140307;27;20080;-74
2022/11/03 12:01:03;;;;;;;7.15;1.48;;;16.20;98.70;;;;;;5140091;27;20078;-74
2022/11/03 12:03:33;;;;;;;8.35;2.15;;;16.30;98.60;;;;;;5140307;27;20043;-74
2022/11/03 12:05:58;;;;;;;13.88;2.25;;;16.30;98.60;;;;;;5138535;27;20092;-75
2022/11/03 12:08:30;;;;;;;9.57;1.95;;;16.50;98.60;;;;;;5125342;27;20027;-74
2022/11/03 12:11:00;;;;;;;8.95;1.77;;;16.40;98.40;;;;;;5122880;27;20065;-76
2022/11/03 12:13:43;;;;;;;9.73;2.08;;;16.30;98.50;;;;;;5122909;27;20031;-74
2022/11/03 12:16:25;;;;;;;9.38;2.25;;;16.50;98.70;;;;;;5135999;27;20042;-75
2022/11/03 12:18:52;;;;;;;8.93;2.03;;;16.20;98.40;;;;;;5127350;27;20039;-75
2022/11/03 12:21:47;;;;;;;12.60;2.30;;;16.20;98.50;;;;;;5118263;28;20040;-73
2022/11/03 12:24:57;;;;;;;8.90;2.00;;;16.10;98.30;;;;;;5119248;28;20131;-72
2022/11/03 12:27:23;;;;;;;9.23;1.77;;;16.10;98.40;;;;;;5089826;28;20048;-73
2022/11/03 12:29:56;;;;;;;10.93;1.77;;;16.20;98.20;;;;;;5119070;28;20034;-73
2022/11/03 12:32:22;;;;;;;9.55;1.48;;;16.30;98.20;;;;;;5118906;28;20055;-72
2022/11/03 12:34:48;;;;;;;7.03;1.90;;;16.20;97.90;;;;;;5119020;28;20044;-73
2022/11/03 12:37:14;;;;;;;9.52;1.58;;;16.20;98.00;;;;;;5119025;28;20035;-73
2022/11/03 12:39:40;;;;;;;8.65;2.05;;;16.10;97.70;;;;;;5118871;28;20450;-73
2022/11/03 12:42:06;;;;;;;7.88;1.30;;;16.20;98.00;;;;;;5119035;28;20031;-74
2022/11/03 12:44:32;;;;;;;8.95;1.80;;;16.20;98.00;;;;;;5152075;27;20044;-73
2022/11/03 12:46:58;;;;;;;7.22;1.88;;;16.30;98.20;;;;;;5118900;28;20332;-73
2022/11/03 12:49:24;;;;;;;8.10;1.80;;;16.30;97.80;;;;;;5118554;27;20039;-73
2022/11/03 12:51:50;;;;;;;8.40;1.80;;;16.20;97.90;;;;;;5118381;28;20130;-73
2022/11/03 12:54:16;;;;;;;8.63;1.90;;;16.20;97.90;;;;;;5118538;28;20053;-73
2022/11/03 12:56:41;;;;;;;5.30;1.70;;;16.30;98.00;;;;;;5118614;28;20388;-73
2022/11/03 12:59:07;;;;;;;11.02;1.98;;;16.30;97.60;;;;;;5118358;28;20036;-73
2022/11/03 13:01:33;;;;;;;7.50;2.10;;;16.40;98.10;;;;;;5118419;28;20439;-73
2022/11/03 13:03:59;;;;;;;8.25;1.85;;;16.60;97.70;;;;;;5118394;28;20036;-73
2022/11/03 13:06:25;;;;;;;10.20;1.70;;;16.70;97.60;;;;;;5117990;28;20122;-73
2022/11/03 13:08:51;;;;;;;6.35;1.90;;;16.90;97.50;;;;;;5118412;28;20392;-73
2022/11/03 13:14:02;;;;;;;8.93;1.63;;;17.00;97.40;;;;;;5118247;28;20119;-73
2022/11/03 13:16:28;;;;;;;8.68;1.77;;;16.80;97.40;;;;;;5117739;28;20051;-73
2022/11/03 13:18:54;;;;;;;6.50;1.85;;;17.10;97.50;;;;;;5117718;28;20274;-73
2022/11/03 13:21:19;;;;;;;10.55;1.80;;;17.10;97.30;;;;;;5151571;27;20134;-73
2022/11/03 13:23:45;;;;;;;7.57;2.35;;;17.10;97.40;;;;;;5118019;28;20039;-77